sensor_id;sensor_type;location;lat;lon;timestamp;pressure;altitude;pressure_sealevel;temperature;humidity
58090;BME280;45149;50.976;6.120;2022-12-29T00:01:15;99031.59;;;16.90;97.25
58090;BME280;45149;50.976;6.120;2022-12-29T00:03:40;99035.38;;;16.89;97.21
58090;BME280;45149;50.976;6.120;2022-12-29T00:06:05;99017.56;;;16.88;97.17
58090;BME280;45149;50.976;6.120;2022-12-29T00:08:30;99034.03;;;16.87;97.45
58090;BME280;45149;50.976;6.120;2022-12-29T00:11:09;99013.56;;;16.86;97.28
58090;BME280;45149;50.976;6.120;2022-12-29T00:13:34;98992.28;;;16.84;97.51
58090;BME280;45149;50.976;6.120;2022-12-29T00:16:18;99003.34;;;16.83;97.55
58090;BME280;45149;50.976;6.120;2022-12-29T00:18:43;98995.28;;;16.83;97.61
58090;BME280;45149;50.976;6.120;2022-12-29T00:21:19;99003.34;;;16.83;97.70
58090;BME280;45149;50.976;6.120;2022-12-29T00:24:03;99006.34;;;16.81;97.66
58090;BME280;45149;50.976;6.120;2022-12-29T00:26:53;98992.88;;;16.81;97.59
58090;BME280;45149;50.976;6.120;2022-12-29T00:29:38;98987.47;;;16.81;97.71
58090;BME280;45149;50.976;6.120;2022-12-29T00:32:22;98996.66;;;16.80;97.81
58090;BME280;45149;50.976;6.120;2022-12-29T00:35:07;98994.25;;;16.78;97.73
58090;BME280;45149;50.976;6.120;2022-12-29T00:37:33;98998.84;;;16.78;97.89
58090;BME280;45149;50.976;6.120;2022-12-29T00:40:17;98975.16;;;16.75;97.79
58090;BME280;45149;50.976;6.120;2022-12-29T00:43:01;98980.28;;;16.76;97.92
58090;BME280;45149;50.976;6.120;2022-12-29T00:45:45;98993.75;;;16.76;98.12
58090;BME280;45149;50.976;6.120;2022-12-29T00:48:10;98984.06;;;16.75;98.14
58090;BME280;45149;50.976;6.120;2022-12-29T00:50:35;98987.53;;;16.76;97.96
58090;BME280;45149;50.976;6.120;2022-12-29T00:53:00;98960.09;;;16.74;98.07
58090;BME280;45149;50.976;6.120;2022-12-29T00:55:25;98976.28;;;16.74;98.30
58090;BME280;45149;50.976;6.120;2022-12-29T00:57:50;98960.38;;;16.72;98.19
58090;BME280;45149;50.976;6.120;2022-12-29T01:00:16;98970.06;;;16.73;98.30
58090;BME280;45149;50.976;6.120;2022-12-29T01:02:41;98983.84;;;16.72;98.32
58090;BME280;45149;50.976;6.120;2022-12-29T01:05:06;98976.56;;;16.72;98.05
58090;BME280;45149;50.976;6.120;2022-12-29T01:07:31;99000.00;;;16.72;98.40
58090;BME280;45149;50.976;6.120;2022-12-29T01:09:57;99000.00;;;16.72;98.27
58090;BME280;45149;50.976;6.120;2022-12-29T01:12:37;98970.66;;;16.70;98.20
58090;BME280;45149;50.976;6.120;2022-12-29T01:15:06;98979.81;;;16.69;98.46
58090;BME280;45149;50.976;6.120;2022-12-29T01:17:32;98976.63;;;16.67;98.58
58090;BME280;45149;50.976;6.120;2022-12-29T01:19:57;98968.25;;;16.69;98.40
58090;BME280;45149;50.976;6.120;2022-12-29T01:22:22;98952.38;;;16.67;98.50
58090;BME280;45149;50.976;6.120;2022-12-29T01:24:47;98966.63;;;16.68;98.61
58090;BME280;45149;50.976;6.120;2022-12-29T01:27:13;98963.44;;;16.66;98.72
58090;BME280;45149;50.976;6.120;2022-12-29T01:29:39;98962.63;;;16.65;98.50
58090;BME280;45149;50.976;6.120;2022-12-29T01:32:04;98956.44;;;16.64;98.43
58090;BME280;45149;50.976;6.120;2022-12-29T01:34:29;98947.28;;;16.66;98.67
58090;BME280;45149;50.976;6.120;2022-12-29T01:36:54;98943.75;;;16.65;98.58
58090;BME280;45149;50.976;6.120;2022-12-29T01:39:20;98950.28;;;16.64;98.54
58090;BME280;45149;50.976;6.120;2022-12-29T01:41:45;98959.44;;;16.63;98.53
58090;BME280;45149;50.976;6.120;2022-12-29T01:44:39;98951.34;;;16.63;98.64
58090;BME280;45149;50.976;6.120;2022-12-29T01:47:01;98969.41;;;16.62;98.61
58090;BME280;45149;50.976;6.120;2022-12-29T01:49:26;98953.53;;;16.61;98.40
58090;BME280;45149;50.976;6.120;2022-12-29T01:54:19;98961.63;;;16.61;98.48
58090;BME280;45149;50.976;6.120;2022-12-29T01:56:47;98953.53;;;16.61;98.76
58090;BME280;45149;50.976;6.120;2022-12-29T01:59:15;98944.94;;;16.59;98.79
58090;BME280;45149;50.976;6.120;2022-12-29T02:01:42;98943.03;;;16.59;98.66
58090;BME280;45149;50.976;6.120;2022-12-29T02:04:08;98967.59;;;16.58;98.65
58090;BME280;45149;50.976;6.120;2022-12-29T02:06:37;98943.34;;;16.58;98.55
58090;BME280;45149;50.976;6.120;2022-12-29T02:09:03;98950.34;;;16.59;98.50
58090;BME280;45149;50.976;6.120;2022-12-29T02:11:28;98951.72;;;16.56;98.39
58090;BME280;45149;50.976;6.120;2022-12-29T02:13:56;98951.41;;;16.58;98.63
58090;BME280;45149;50.976;6.120;2022-12-29T02:18:57;98949.81;;;16.57;98.63
58090;BME280;45149;50.976;6.120;2022-12-29T02:29:13;98929.63;;;16.54;98.60
58090;BME280;45149;50.976;6.120;2022-12-29T02:31:46;98920.75;;;16.54;98.71
58090;BME280;45149;50.976;6.120;2022-12-29T02:34:18;98919.25;;;16.47;98.75
58090;BME280;45149;50.976;6.120;2022-12-29T02:36:48;98930.75;;;16.53;98.59
58090;BME280;45149;50.976;6.120;2022-12-29T02:39:25;98925.34;;;16.53;98.68
58090;BME280;45149;50.976;6.120;2022-12-29T02:44:28;98918.66;;;16.51;99.02
58090;BME280;45149;50.976;6.120;2022-12-29T02:47:14;98902.50;;;16.51;99.19
58090;BME280;45149;50.976;6.120;2022-12-29T02:49:46;98878.53;;;16.49;99.10
58090;BME280;45149;50.976;6.120;2022-12-29T02:52:18;98901.97;;;16.48;99.52
58090;BME280;45149;50.976;6.120;2022-12-29T02:54:45;98914.66;;;16.48;99.31
58090;BME280;45149;50.976;6.120;2022-12-29T02:57:15;98903.09;;;16.47;99.54
58090;BME280;45149;50.976;6.120;2022-12-29T02:59:53;98905.78;;;16.47;99.69
58090;BME280;45149;50.976;6.120;2022-12-29T03:07:29;98906.06;;;16.46;99.84
58090;BME280;45149;50.976;6.120;2022-12-29T03:10:01;98895.28;;;16.46;100.00
58090;BME280;45149;50.976;6.120;2022-12-29T03:12:30;98892.59;;;16.46;100.00
58090;BME280;45149;50.976;6.120;2022-12-29T03:15:18;98875.91;;;16.44;100.00
58090;BME280;45149;50.976;6.120;2022-12-29T03:18:06;98877.81;;;16.43;100.00
58090;BME280;45149;50.976;6.120;2022-12-29T03:20:38;98878.59;;;16.44;100.00
58090;BME280;45149;50.976;6.120;2022-12-29T03:23:03;98879.69;;;16.43;100.00
58090;BME280;45149;50.976;6.120;2022-12-29T03:25:31;98886.69;;;16.44;100.00
58090;BME280;45149;50.976;6.120;2022-12-29T03:27:58;98872.44;;;16.43;100.00
58090;BME280;45149;50.976;6.120;2022-12-29T03:30:25;98878.09;;;16.42;100.00
58090;BME280;45149;50.976;6.120;2022-12-29T03:32:55;98888.06;;;16.41;100.00
58090;BME280;45149;50.976;6.120;2022-12-29T03:35:22;98871.59;;;16.43;100.00
58090;BME280;45149;50.976;6.120;2022-12-29T03:37:51;98842.50;;;16.45;100.00
58090;BME280;45149;50.976;6.120;2022-12-29T03:40:20;98833.59;;;16.44;100.00
58090;BME280;45149;50.976;6.120;2022-12-29T03:42:46;98841.66;;;16.44;100.00
58090;BME280;45149;50.976;6.120;2022-12-29T03:45:11;98841.66;;;16.44;100.00
58090;BME280;45149;50.976;6.120;2022-12-29T03:47:37;98846.56;;;16.42;100.00
58090;BME280;45149;50.976;6.120;2022-12-29T03:50:02;98845.78;;;16.42;100.00
58090;BME280;45149;50.976;6.120;2022-12-29T03:52:27;98849.25;;;16.42;100.00
58090;BME280;45149;50.976;6.120;2022-12-29T03:54:52;98870.03;;;16.42;100.00
58090;BME280;45149;50.976;6.120;2022-12-29T03:57:18;98869.22;;;16.41;100.00
58090;BME280;45149;50.976;6.120;2022-12-29T03:59:43;98859.50;;;16.40;100.00
58090;BME280;45149;50.976;6.120;2022-12-29T04:02:08;98861.00;;;16.33;100.00
58090;BME280;45149;50.976;6.120;2022-12-29T04:04:33;98866.81;;;16.40;100.00
58090;BME280;45149;50.976;6.120;2022-12-29T04:06:58;98854.44;;;16.39;100.00
58090;BME280;45149;50.976;6.120;2022-12-29T04:09:24;98853.34;;;16.40;100.00
58090;BME280;45149;50.976;6.120;2022-12-29T04:11:49;98859.03;;;16.38;100.00
58090;BME280;45149;50.976;6.120;2022-12-29T04:14:14;98847.47;;;16.38;100.00
58090;BME280;45149;50.976;6.120;2022-12-29T04:16:39;98866.31;;;16.38;100.00
58090;BME280;45149;50.976;6.120;2022-12-29T04:19:05;98865.50;;;16.37;100.00
58090;BME280;45149;50.976;6.120;2022-12-29T04:21:30;98860.09;;;16.37;100.00
58090;BME280;45149;50.976;6.120;2022-12-29T04:23:56;98870.88;;;16.37;100.00
58090;BME280;45149;50.976;6.120;2022-12-29T04:26:21;98862.00;;;16.37;100.00
58090;BME280;45149;50.976;6.120;2022-12-29T04:28:46;98879.25;;;16.36;100.00
58090;BME280;45149;50.976;6.120;2022-12-29T04:31:11;98871.97;;;16.36;100.00
58090;BME280;45149;50.976;6.120;2022-12-29T04:33:36;98865.78;;;16.36;100.00
58090;BME280;45149;50.976;6.120;2022-12-29T04:36:02;98890.03;;;16.36;100.00
58090;BME280;45149;50.976;6.120;2022-12-29T04:38:27;98878.47;;;16.35;100.00
58090;BME280;45149;50.976;6.120;2022-12-29T04:40:53;98886.56;;;16.35;100.00
58090;BME280;45149;50.976;6.120;2022-12-29T04:43:18;98880.34;;;16.35;100.00
58090;BME280;45149;50.976;6.120;2022-12-29T04:45:44;98879.56;;;16.34;100.00
58090;BME280;45149;50.976;6.120;2022-12-29T04:48:10;98895.72;;;16.34;100.00
58090;BME280;45149;50.976;6.120;2022-12-29T04:50:35;98895.94;;;16.38;100.00
58090;BME280;45149;50.976;6.120;2022-12-29T04:53:00;98873.59;;;16.37;100.00
58090;BME280;45149;50.976;6.120;2022-12-29T04:55:25;98891.13;;;16.35;100.00
58090;BME280;45149;50.976;6.120;2022-12-29T04:57:51;98908.41;;;16.34;100.00
58090;BME280;45149;50.976;6.120;2022-12-29T05:00:16;98888.72;;;16.33;100.00
58090;BME280;45149;50.976;6.120;2022-12-29T05:02:41;98921.88;;;16.34;100.00
58090;BME280;45149;50.976;6.120;2022-12-29T05:05:06;98900.31;;;16.34;100.00
58090;BME280;45149;50.976;6.120;2022-12-29T05:07:32;98891.41;;;16.33;100.00
58090;BME280;45149;50.976;6.120;2022-12-29T05:09:58;98899.50;;;16.33;100.00
58090;BME280;45149;50.976;6.120;2022-12-29T05:12:23;98907.59;;;16.33;100.00
58090;BME280;45149;50.976;6.120;2022-12-29T05:14:48;98915.38;;;16.35;100.00
58090;BME280;45149;50.976;6.120;2022-12-29T05:17:14;98921.88;;;16.34;100.00
58090;BME280;45149;50.976;6.120;2022-12-29T05:19:39;98912.69;;;16.35;100.00
58090;BME280;45149;50.976;6.120;2022-12-29T05:22:04;98921.06;;;16.33;100.00
58090;BME280;45149;50.976;6.120;2022-12-29T05:24:29;98930.75;;;16.34;100.00
58090;BME280;45149;50.976;6.120;2022-12-29T05:26:55;98929.97;;;16.34;100.00
58090;BME280;45149;50.976;6.120;2022-12-29T05:29:20;98932.66;;;16.34;100.00
58090;BME280;45149;50.976;6.120;2022-12-29T05:31:45;98938.81;;;16.34;100.00
58090;BME280;45149;50.976;6.120;2022-12-29T05:34:11;98921.88;;;16.34;100.00
58090;BME280;45149;50.976;6.120;2022-12-29T05:36:36;98903.00;;;16.34;100.00
58090;BME280;45149;50.976;6.120;2022-12-29T05:39:01;98935.34;;;16.34;100.00
58090;BME280;45149;50.976;6.120;2022-12-29T05:41:26;98935.34;;;16.34;100.00
58090;BME280;45149;50.976;6.120;2022-12-29T05:43:52;98952.59;;;16.33;100.00
58090;BME280;45149;50.976;6.120;2022-12-29T05:46:17;98922.13;;;16.32;100.00
58090;BME280;45149;50.976;6.120;2022-12-29T05:48:42;98937.50;;;16.32;100.00
58090;BME280;45149;50.976;6.120;2022-12-29T05:51:07;98939.13;;;16.33;100.00
58090;BME280;45149;50.976;6.120;2022-12-29T05:53:32;98925.94;;;16.31;100.00
58090;BME280;45149;50.976;6.120;2022-12-29T05:55:57;98932.13;;;16.32;100.00
58090;BME280;45149;50.976;6.120;2022-12-29T05:58:23;98945.31;;;16.33;100.00
58090;BME280;45149;50.976;6.120;2022-12-29T06:00:48;98935.91;;;16.30;100.00
58090;BME280;45149;50.976;6.120;2022-12-29T06:03:13;98938.59;;;16.30;100.00
58090;BME280;45149;50.976;6.120;2022-12-29T06:05:38;98957.44;;;16.30;100.00
58090;BME280;45149;50.976;6.120;2022-12-29T06:08:04;98946.69;;;16.30;100.00
58090;BME280;45149;50.976;6.120;2022-12-29T06:10:29;98961.75;;;16.32;100.00
58090;BME280;45149;50.976;6.120;2022-12-29T06:12:54;98959.84;;;16.32;100.00
58090;BME280;45149;50.976;6.120;2022-12-29T06:15:19;98972.25;;;16.33;100.00
58090;BME280;45149;50.976;6.120;2022-12-29T06:17:44;98969.03;;;16.31;100.00
58090;BME280;45149;50.976;6.120;2022-12-29T06:20:10;98971.75;;;16.31;100.00
58090;BME280;45149;50.976;6.120;2022-12-29T06:22:36;98969.03;;;16.31;100.00
58090;BME280;45149;50.976;6.120;2022-12-29T06:25:01;98980.63;;;16.32;100.00
58090;BME280;45149;50.976;6.120;2022-12-29T06:27:26;98978.72;;;16.32;100.00
58090;BME280;45149;50.976;6.120;2022-12-29T06:29:52;98973.06;;;16.34;100.00
58090;BME280;45149;50.976;6.120;2022-12-29T06:32:17;98979.53;;;16.33;100.00
58090;BME280;45149;50.976;6.120;2022-12-29T06:34:42;98987.63;;;16.33;100.00
58090;BME280;45149;50.976;6.120;2022-12-29T06:37:09;98986.78;;;16.32;100.00
58090;BME280;45149;50.976;6.120;2022-12-29T06:39:34;98998.38;;;16.33;100.00
58090;BME280;45149;50.976;6.120;2022-12-29T06:42:00;99005.66;;;16.32;100.00
58090;BME280;45149;50.976;6.120;2022-12-29T06:44:25;99008.34;;;16.32;100.00
58090;BME280;45149;50.976;6.120;2022-12-29T06:46:50;99013.72;;;16.32;100.00
58090;BME280;45149;50.976;6.120;2022-12-29T06:49:15;98996.47;;;16.33;99.96
58090;BME280;45149;50.976;6.120;2022-12-29T06:51:40;99010.78;;;16.34;100.00
58090;BME280;45149;50.976;6.120;2022-12-29T06:54:06;99018.03;;;16.33;100.00
58090;BME280;45149;50.976;6.120;2022-12-29T06:56:31;99020.72;;;16.33;100.00
58090;BME280;45149;50.976;6.120;2022-12-29T06:58:56;99021.56;;;16.34;100.00
58090;BME280;45149;50.976;6.120;2022-12-29T07:01:21;99023.44;;;16.33;100.00
58090;BME280;45149;50.976;6.120;2022-12-29T07:03:47;99028.81;;;16.33;99.80
58090;BME280;45149;50.976;6.120;2022-12-29T07:06:12;99040.41;;;16.34;99.96
58090;BME280;45149;50.976;6.120;2022-12-29T07:08:37;99027.72;;;16.34;99.89
58090;BME280;45149;50.976;6.120;2022-12-29T07:11:03;99042.81;;;16.35;99.84
58090;BME280;45149;50.976;6.120;2022-12-29T07:13:28;99038.50;;;16.34;99.90
58090;BME280;45149;50.976;6.120;2022-12-29T07:15:54;99042.81;;;16.35;99.72
58090;BME280;45149;50.976;6.120;2022-12-29T07:18:19;99044.41;;;16.36;100.00
58090;BME280;45149;50.976;6.120;2022-12-29T07:20:44;99046.03;;;16.13;97.08
58090;BME280;45149;50.976;6.120;2022-12-29T07:23:10;99047.31;;;15.62;93.80
58090;BME280;45149;50.976;6.120;2022-12-29T07:25:35;99055.41;;;15.62;94.59
58090;BME280;45149;50.976;6.120;2022-12-29T07:28:01;99058.31;;;15.66;95.59
58090;BME280;45149;50.976;6.120;2022-12-29T07:30:26;99070.94;;;15.70;96.36
58090;BME280;45149;50.976;6.120;2022-12-29T07:32:51;99063.84;;;15.79;96.11
58090;BME280;45149;50.976;6.120;2022-12-29T07:35:16;99062.44;;;15.87;96.21
58090;BME280;45149;50.976;6.120;2022-12-29T07:37:41;99066.41;;;15.95;96.71
58090;BME280;45149;50.976;6.120;2022-12-29T07:40:08;99067.16;;;16.01;96.71
58090;BME280;45149;50.976;6.120;2022-12-29T07:42:33;99079.47;;;16.07;96.80
58090;BME280;45149;50.976;6.120;2022-12-29T07:44:58;99065.97;;;16.12;96.49
58090;BME280;45149;50.976;6.120;2022-12-29T07:47:24;99064.81;;;16.18;96.64
58090;BME280;45149;50.976;6.120;2022-12-29T07:49:49;99057.75;;;16.22;96.75
58090;BME280;45149;50.976;6.120;2022-12-29T07:52:14;99076.84;;;16.26;97.00
58090;BME280;45149;50.976;6.120;2022-12-29T07:54:40;99067.09;;;16.30;97.21
58090;BME280;45149;50.976;6.120;2022-12-29T07:57:05;99070.31;;;16.32;97.04
58090;BME280;45149;50.976;6.120;2022-12-29T07:59:31;99077.00;;;16.35;97.32
58090;BME280;45149;50.976;6.120;2022-12-29T08:01:56;99088.03;;;16.38;97.27
58090;BME280;45149;50.976;6.120;2022-12-29T08:04:21;99096.91;;;16.39;97.22
58090;BME280;45149;50.976;6.120;2022-12-29T08:06:46;99128.69;;;16.42;97.57
58090;BME280;45149;50.976;6.120;2022-12-29T08:09:12;99099.53;;;16.44;97.49
58090;BME280;45149;50.976;6.120;2022-12-29T08:11:37;99110.03;;;16.45;97.44
58090;BME280;45149;50.976;6.120;2022-12-29T08:14:03;99102.47;;;16.47;97.33
58090;BME280;45149;50.976;6.120;2022-12-29T08:16:28;99106.75;;;16.48;97.25
58090;BME280;45149;50.976;6.120;2022-12-29T08:18:54;99115.38;;;16.51;97.41
58090;BME280;45149;50.976;6.120;2022-12-29T08:21:19;99118.56;;;16.53;97.29
58090;BME280;45149;50.976;6.120;2022-12-29T08:23:44;99123.66;;;16.54;97.33
58090;BME280;45149;50.976;6.120;2022-12-29T08:26:09;99118.28;;;16.54;97.23
58090;BME280;45149;50.976;6.120;2022-12-29T08:28:34;99117.19;;;16.55;97.22
58090;BME280;45149;50.976;6.120;2022-12-29T08:31:00;99125.00;;;16.57;97.20
58090;BME280;45149;50.976;6.120;2022-12-29T08:33:26;99122.00;;;16.58;97.25
58090;BME280;45149;50.976;6.120;2022-12-29T08:35:51;99126.31;;;16.59;96.99
58090;BME280;45149;50.976;6.120;2022-12-29T08:38:16;99112.84;;;16.59;97.00
58090;BME280;45149;50.976;6.120;2022-12-29T08:40:42;99127.13;;;16.60;96.92
58090;BME280;45149;50.976;6.120;2022-12-29T08:43:08;99132.22;;;16.61;97.04
58090;BME280;45149;50.976;6.120;2022-12-29T08:45:33;99128.41;;;16.62;96.88
58090;BME280;45149;50.976;6.120;2022-12-29T08:47:58;99123.03;;;16.62;96.68
58090;BME280;45149;50.976;6.120;2022-12-29T08:50:23;99134.34;;;16.64;96.68
58090;BME280;45149;50.976;6.120;2022-12-29T08:52:48;99129.75;;;16.65;96.58
58090;BME280;45149;50.976;6.120;2022-12-29T08:55:14;99138.66;;;16.66;96.48
58090;BME280;45149;50.976;6.120;2022-12-29T08:57:39;99147.22;;;16.68;96.33
58090;BME280;45149;50.976;6.120;2022-12-29T09:00:04;99148.06;;;16.68;96.23
58090;BME280;45149;50.976;6.120;2022-12-29T09:02:30;99155.03;;;16.69;96.14
58090;BME280;45149;50.976;6.120;2022-12-29T09:04:55;99156.66;;;16.70;96.13
58090;BME280;45149;50.976;6.120;2022-12-29T09:07:22;99152.03;;;16.71;96.16
58090;BME280;45149;50.976;6.120;2022-12-29T09:09:47;99145.56;;;16.72;96.05
58090;BME280;45149;50.976;6.120;2022-12-29T09:12:12;99152.56;;;16.73;95.96
58090;BME280;45149;50.976;6.120;2022-12-29T09:14:38;99164.16;;;16.73;95.85
58090;BME280;45149;50.976;6.120;2022-12-29T09:17:03;99152.56;;;16.73;95.86
58090;BME280;45149;50.976;6.120;2022-12-29T09:19:47;99154.19;;;16.74;95.87
58090;BME280;45149;50.976;6.120;2022-12-29T09:22:12;99173.84;;;16.74;95.61
58090;BME280;45149;50.976;6.120;2022-12-29T09:24:37;99155.78;;;16.75;95.54
58090;BME280;45149;50.976;6.120;2022-12-29T09:27:02;99168.16;;;16.76;95.54
58090;BME280;45149;50.976;6.120;2022-12-29T09:29:27;99171.69;;;16.76;95.67
58090;BME280;45149;50.976;6.120;2022-12-29T09:31:53;99158.19;;;16.76;95.35
58090;BME280;45149;50.976;6.120;2022-12-29T09:34:18;99160.59;;;16.78;95.27
58090;BME280;45149;50.976;6.120;2022-12-29T09:36:43;99163.31;;;16.78;95.16
58090;BME280;45149;50.976;6.120;2022-12-29T09:39:08;99166.78;;;16.78;95.23
58090;BME280;45149;50.976;6.120;2022-12-29T09:41:38;99171.38;;;16.78;95.24
58090;BME280;45149;50.976;6.120;2022-12-29T09:46:36;99168.41;;;16.79;95.05
58090;BME280;45149;50.976;6.120;2022-12-29T09:51:34;99168.41;;;16.79;94.76
58090;BME280;45149;50.976;6.120;2022-12-29T09:54:03;99173.50;;;16.81;94.73
58090;BME280;45149;50.976;6.120;2022-12-29T09:56:35;99170.81;;;16.81;94.54
58090;BME280;45149;50.976;6.120;2022-12-29T09:59:04;99189.69;;;16.81;94.59
58090;BME280;45149;50.976;6.120;2022-12-29T10:01:31;99177.81;;;16.82;94.52
58090;BME280;45149;50.976;6.120;2022-12-29T10:03:58;99176.84;;;16.73;94.55
58090;BME280;45149;50.976;6.120;2022-12-29T10:09:38;99200.19;;;16.83;94.14
58090;BME280;45149;50.976;6.120;2022-12-29T10:12:14;99184.00;;;16.83;94.26
58090;BME280;45149;50.976;6.120;2022-12-29T10:17:53;99202.56;;;16.84;94.02
58090;BME280;45149;50.976;6.120;2022-12-29T10:20:37;99203.41;;;16.85;93.95
58090;BME280;45149;50.976;6.120;2022-12-29T10:25:38;99204.19;;;16.85;93.57
58090;BME280;45149;50.976;6.120;2022-12-29T10:28:05;99218.47;;;16.86;93.56
58090;BME280;45149;50.976;6.120;2022-12-29T10:30:34;99217.38;;;16.87;93.61
58090;BME280;45149;50.976;6.120;2022-12-29T10:33:04;99222.78;;;16.87;93.44
58090;BME280;45149;50.976;6.120;2022-12-29T10:35:32;99210.38;;;16.86;93.67
58090;BME280;45149;50.976;6.120;2022-12-29T10:38:12;99203.91;;;16.87;93.47
58090;BME280;45149;50.976;6.120;2022-12-29T10:40:45;99221.69;;;16.88;93.14
58090;BME280;45149;50.976;6.120;2022-12-29T10:45:42;99228.72;;;16.89;93.06
58090;BME280;45149;50.976;6.120;2022-12-29T10:48:12;99234.13;;;16.89;93.16
58090;BME280;45149;50.976;6.120;2022-12-29T10:50:40;99221.44;;;16.89;92.90
58090;BME280;45149;50.976;6.120;2022-12-29T10:53:07;99228.44;;;16.90;92.95
58090;BME280;45149;50.976;6.120;2022-12-29T10:55:40;99233.84;;;16.90;92.77
58090;BME280;45149;50.976;6.120;2022-12-29T10:58:07;99235.72;;;16.90;92.62
58090;BME280;45149;50.976;6.120;2022-12-29T11:00:35;99238.41;;;16.90;92.67
58090;BME280;45149;50.976;6.120;2022-12-29T11:03:06;99241.94;;;16.90;92.66
58090;BME280;45149;50.976;6.120;2022-12-29T11:05:39;99251.88;;;16.90;92.73
58090;BME280;45149;50.976;6.120;2022-12-29T11:08:12;99262.69;;;16.90;92.44
58090;BME280;45149;50.976;6.120;2022-12-29T11:10:40;99272.38;;;16.91;92.49
58090;BME280;45149;50.976;6.120;2022-12-29T11:13:19;99271.28;;;16.92;92.49
58090;BME280;45149;50.976;6.120;2022-12-29T11:15:49;99274.78;;;16.92;92.28
58090;BME280;45149;50.976;6.120;2022-12-29T11:18:19;99276.69;;;16.92;92.27
58090;BME280;45149;50.976;6.120;2022-12-29T11:20:45;99261.31;;;16.92;92.16
58090;BME280;45149;50.976;6.120;2022-12-29T11:26:14;99261.00;;;16.94;92.06
58090;BME280;45149;50.976;6.120;2022-12-29T11:28:40;99269.09;;;16.94;91.96
58090;BME280;45149;50.976;6.120;2022-12-29T11:31:06;99278.00;;;16.94;91.79
58090;BME280;45149;50.976;6.120;2022-12-29T11:33:32;99287.69;;;16.95;92.40
58090;BME280;45149;50.976;6.120;2022-12-29T11:36:01;99294.19;;;16.94;92.63
58090;BME280;45149;50.976;6.120;2022-12-29T11:38:31;99293.38;;;16.94;92.33
58090;BME280;45149;50.976;6.120;2022-12-29T11:40:58;99244.03;;;16.93;91.19
58090;BME280;45149;50.976;6.120;2022-12-29T11:43:26;99301.09;;;16.76;81.23
58090;BME280;45149;50.976;6.120;2022-12-29T11:45:54;99298.44;;;16.71;82.83
58090;BME280;45149;50.976;6.120;2022-12-29T11:48:21;99299.50;;;16.70;84.63
58090;BME280;45149;50.976;6.120;2022-12-29T11:50:50;99304.91;;;16.70;83.78
58090;BME280;45149;50.976;6.120;2022-12-29T11:55:51;99305.38;;;16.77;84.48
58090;BME280;45149;50.976;6.120;2022-12-29T11:58:17;99307.53;;;16.80;84.54
58090;BME280;45149;50.976;6.120;2022-12-29T12:00:43;99316.13;;;16.83;84.65
58090;BME280;45149;50.976;6.120;2022-12-29T12:03:22;99320.44;;;16.84;84.72
58090;BME280;45149;50.976;6.120;2022-12-29T12:05:50;99310.16;;;16.86;85.00
58090;BME280;45149;50.976;6.120;2022-12-29T12:10:54;99315.81;;;16.89;84.90
58090;BME280;45149;50.976;6.120;2022-12-29T12:13:30;99313.91;;;16.90;84.61
58090;BME280;45149;50.976;6.120;2022-12-29T12:16:21;99309.34;;;16.90;84.66
58090;BME280;45149;50.976;6.120;2022-12-29T12:18:55;99316.31;;;16.91;84.82
58090;BME280;45149;50.976;6.120;2022-12-29T12:21:27;99323.31;;;16.92;85.13
58090;BME280;45149;50.976;6.120;2022-12-29T12:29:11;99306.84;;;16.94;85.14
58090;BME280;45149;50.976;6.120;2022-12-29T12:31:59;99313.88;;;16.95;85.26
58090;BME280;45149;50.976;6.120;2022-12-29T12:34:32;99307.38;;;16.96;85.21
58090;BME280;45149;50.976;6.120;2022-12-29T12:37:21;99306.31;;;16.97;85.25
58090;BME280;45149;50.976;6.120;2022-12-29T12:47:51;99333.00;;;16.98;85.56
58090;BME280;45149;50.976;6.120;2022-12-29T12:53:03;99326.47;;;17.00;85.57
58090;BME280;45149;50.976;6.120;2022-12-29T12:55:36;99321.91;;;17.00;85.53
58090;BME280;45149;50.976;6.120;2022-12-29T13:00:33;99322.69;;;17.01;85.42
58090;BME280;45149;50.976;6.120;2022-12-29T13:05:29;99318.13;;;17.01;85.60
58090;BME280;45149;50.976;6.120;2022-12-29T13:18:12;99331.03;;;17.04;85.51
58090;BME280;45149;50.976;6.120;2022-12-29T13:20:42;99338.31;;;17.04;85.53
58090;BME280;45149;50.976;6.120;2022-12-29T13:26:08;99329.41;;;17.03;85.91
58090;BME280;45149;50.976;6.120;2022-12-29T13:31:10;99339.13;;;17.04;85.56
58090;BME280;45149;50.976;6.120;2022-12-29T13:33:46;99337.84;;;16.96;85.88
58090;BME280;45149;50.976;6.120;2022-12-29T13:36:19;99345.31;;;17.05;85.70
58090;BME280;45149;50.976;6.120;2022-12-29T13:38:48;99338.06;;;17.05;85.85
58090;BME280;45149;50.976;6.120;2022-12-29T13:41:27;99343.44;;;17.05;85.96
58090;BME280;45149;50.976;6.120;2022-12-29T13:43:55;99351.78;;;17.04;85.84
58090;BME280;45149;50.976;6.120;2022-12-29T13:46:31;99350.72;;;17.05;86.02
58090;BME280;45149;50.976;6.120;2022-12-29T13:49:02;99358.81;;;17.05;85.92
58090;BME280;45149;50.976;6.120;2022-12-29T13:51:29;99346.13;;;17.05;85.86
58090;BME280;45149;50.976;6.120;2022-12-29T13:56:41;99356.94;;;17.05;85.75
58090;BME280;45149;50.976;6.120;2022-12-29T14:04:27;99361.22;;;17.06;85.81
58090;BME280;45149;50.976;6.120;2022-12-29T14:07:00;99376.59;;;17.06;86.01
58090;BME280;45149;50.976;6.120;2022-12-29T14:09:46;99379.00;;;17.07;85.83
58090;BME280;45149;50.976;6.120;2022-12-29T14:12:19;99380.09;;;17.06;85.73
58090;BME280;45149;50.976;6.120;2022-12-29T14:14:44;99374.69;;;17.06;85.86
58090;BME280;45149;50.976;6.120;2022-12-29T14:17:10;99382.78;;;17.06;85.91
58090;BME280;45149;50.976;6.120;2022-12-29T14:19:38;99390.59;;;17.08;85.80
58090;BME280;45149;50.976;6.120;2022-12-29T14:22:06;99396.00;;;17.08;86.02
58090;BME280;45149;50.976;6.120;2022-12-29T14:27:00;99396.00;;;17.08;85.90
58090;BME280;45149;50.976;6.120;2022-12-29T14:31:54;99402.22;;;17.08;85.89
58090;BME280;45149;50.976;6.120;2022-12-29T14:40:02;99401.38;;;17.08;86.06
58090;BME280;45149;50.976;6.120;2022-12-29T14:42:12;99408.09;;;17.10;85.95